sensor_id;sensor_type;location;lat;lon;timestamp;P1;durP1;ratioP1;P2;durP2;ratioP2
14414;SDS011;7307;50.852;4.314;2022-08-01T00:01:49;3.42;;;1.30;;
14414;SDS011;7307;50.852;4.314;2022-08-01T00:04:15;2.33;;;1.50;;
14414;SDS011;7307;50.852;4.314;2022-08-01T00:06:40;1.77;;;1.40;;
14414;SDS011;7307;50.852;4.314;2022-08-01T00:09:06;2.08;;;1.40;;
14414;SDS011;7307;50.852;4.314;2022-08-01T00:11:31;1.88;;;1.42;;
14414;SDS011;7307;50.852;4.314;2022-08-01T00:13:57;2.33;;;1.45;;
14414;SDS011;7307;50.852;4.314;2022-08-01T00:16:22;1.52;;;1.25;;
14414;SDS011;7307;50.852;4.314;2022-08-01T00:18:49;2.28;;;1.50;;
14414;SDS011;7307;50.852;4.314;2022-08-01T00:21:16;4.20;;;1.77;;
14414;SDS011;7307;50.852;4.314;2022-08-01T00:23:41;3.42;;;1.70;;
14414;SDS011;7307;50.852;4.314;2022-08-01T00:26:08;4.53;;;1.90;;
14414;SDS011;7307;50.852;4.314;2022-08-01T00:28:34;2.38;;;1.83;;
14414;SDS011;7307;50.852;4.314;2022-08-01T00:31:00;5.93;;;2.03;;
14414;SDS011;7307;50.852;4.314;2022-08-01T00:33:25;3.03;;;1.60;;
14414;SDS011;7307;50.852;4.314;2022-08-01T00:35:51;2.13;;;1.58;;
14414;SDS011;7307;50.852;4.314;2022-08-01T00:38:17;3.35;;;2.00;;
14414;SDS011;7307;50.852;4.314;2022-08-01T00:40:42;3.13;;;1.75;;
14414;SDS011;7307;50.852;4.314;2022-08-01T00:43:08;3.90;;;1.95;;
14414;SDS011;7307;50.852;4.314;2022-08-01T00:45:34;2.97;;;1.85;;
14414;SDS011;7307;50.852;4.314;2022-08-01T00:48:00;5.50;;;1.90;;
14414;SDS011;7307;50.852;4.314;2022-08-01T00:50:25;2.67;;;1.95;;
14414;SDS011;7307;50.852;4.314;2022-08-01T00:52:51;2.80;;;2.00;;
14414;SDS011;7307;50.852;4.314;2022-08-01T00:55:18;2.63;;;1.80;;
14414;SDS011;7307;50.852;4.314;2022-08-01T00:57:45;3.47;;;2.13;;
14414;SDS011;7307;50.852;4.314;2022-08-01T01:00:11;4.65;;;2.28;;
14414;SDS011;7307;50.852;4.314;2022-08-01T01:02:38;4.38;;;2.17;;
14414;SDS011;7307;50.852;4.314;2022-08-01T01:05:03;4.40;;;2.38;;
14414;SDS011;7307;50.852;4.314;2022-08-01T01:13:37;3.20;;;1.90;;
14414;SDS011;7307;50.852;4.314;2022-08-01T01:16:14;3.03;;;2.00;;
14414;SDS011;7307;50.852;4.314;2022-08-01T01:18:46;6.40;;;2.58;;
14414;SDS011;7307;50.852;4.314;2022-08-01T01:29:02;5.72;;;3.15;;
14414;SDS011;7307;50.852;4.314;2022-08-01T01:31:46;6.05;;;3.20;;
14414;SDS011;7307;50.852;4.314;2022-08-01T01:34:15;4.72;;;3.88;;
14414;SDS011;7307;50.852;4.314;2022-08-01T01:36:45;6.78;;;4.20;;
14414;SDS011;7307;50.852;4.314;2022-08-01T01:39:13;4.97;;;3.83;;
14414;SDS011;7307;50.852;4.314;2022-08-01T01:41:40;7.50;;;4.20;;
14414;SDS011;7307;50.852;4.314;2022-08-01T01:44:07;7.13;;;4.30;;
14414;SDS011;7307;50.852;4.314;2022-08-01T01:46:35;6.57;;;3.88;;
14414;SDS011;7307;50.852;4.314;2022-08-01T01:49:01;6.05;;;4.15;;
14414;SDS011;7307;50.852;4.314;2022-08-01T01:51:28;6.22;;;4.50;;
14414;SDS011;7307;50.852;4.314;2022-08-01T01:53:55;6.63;;;4.47;;
14414;SDS011;7307;50.852;4.314;2022-08-01T01:56:21;8.07;;;4.82;;
14414;SDS011;7307;50.852;4.314;2022-08-01T01:58:50;8.02;;;4.75;;
14414;SDS011;7307;50.852;4.314;2022-08-01T02:01:18;10.27;;;5.18;;
14414;SDS011;7307;50.852;4.314;2022-08-01T02:03:46;7.05;;;4.32;;
14414;SDS011;7307;50.852;4.314;2022-08-01T02:06:13;7.88;;;4.97;;
14414;SDS011;7307;50.852;4.314;2022-08-01T02:08:41;6.85;;;4.60;;
14414;SDS011;7307;50.852;4.314;2022-08-01T02:11:08;7.25;;;4.47;;
14414;SDS011;7307;50.852;4.314;2022-08-01T02:13:43;7.78;;;4.82;;
14414;SDS011;7307;50.852;4.314;2022-08-01T02:16:17;8.75;;;4.70;;
14414;SDS011;7307;50.852;4.314;2022-08-01T02:18:44;5.18;;;4.13;;
14414;SDS011;7307;50.852;4.314;2022-08-01T02:21:11;8.25;;;4.95;;
14414;SDS011;7307;50.852;4.314;2022-08-01T02:23:40;8.38;;;4.70;;
14414;SDS011;7307;50.852;4.314;2022-08-01T02:26:07;8.85;;;4.80;;
14414;SDS011;7307;50.852;4.314;2022-08-01T02:28:43;7.13;;;4.30;;
14414;SDS011;7307;50.852;4.314;2022-08-01T02:31:31;6.63;;;4.38;;
14414;SDS011;7307;50.852;4.314;2022-08-01T02:34:01;9.02;;;4.40;;
14414;SDS011;7307;50.852;4.314;2022-08-01T02:36:30;7.97;;;4.78;;
14414;SDS011;7307;50.852;4.314;2022-08-01T02:39:00;9.38;;;4.72;;
14414;SDS011;7307;50.852;4.314;2022-08-01T02:41:28;6.90;;;4.53;;
14414;SDS011;7307;50.852;4.314;2022-08-01T02:43:59;8.13;;;4.65;;
14414;SDS011;7307;50.852;4.314;2022-08-01T02:46:34;9.48;;;5.45;;
14414;SDS011;7307;50.852;4.314;2022-08-01T02:49:04;9.25;;;4.57;;
14414;SDS011;7307;50.852;4.314;2022-08-01T02:51:33;10.63;;;5.07;;
14414;SDS011;7307;50.852;4.314;2022-08-01T02:54:05;8.43;;;5.20;;
14414;SDS011;7307;50.852;4.314;2022-08-01T02:56:33;7.60;;;4.28;;
14414;SDS011;7307;50.852;4.314;2022-08-01T02:59:04;9.77;;;5.10;;
14414;SDS011;7307;50.852;4.314;2022-08-01T03:01:33;4.80;;;3.78;;
14414;SDS011;7307;50.852;4.314;2022-08-01T03:04:00;5.97;;;3.88;;
14414;SDS011;7307;50.852;4.314;2022-08-01T03:06:27;7.45;;;4.10;;
14414;SDS011;7307;50.852;4.314;2022-08-01T03:08:54;8.02;;;4.38;;
14414;SDS011;7307;50.852;4.314;2022-08-01T03:11:21;8.20;;;4.07;;
14414;SDS011;7307;50.852;4.314;2022-08-01T03:13:49;6.45;;;3.67;;
14414;SDS011;7307;50.852;4.314;2022-08-01T03:16:16;9.90;;;4.45;;
14414;SDS011;7307;50.852;4.314;2022-08-01T03:18:44;6.50;;;3.95;;
14414;SDS011;7307;50.852;4.314;2022-08-01T03:21:11;8.65;;;4.30;;
14414;SDS011;7307;50.852;4.314;2022-08-01T03:23:38;8.68;;;3.92;;
14414;SDS011;7307;50.852;4.314;2022-08-01T03:26:05;8.07;;;4.50;;
14414;SDS011;7307;50.852;4.314;2022-08-01T03:28:31;6.57;;;4.22;;
14414;SDS011;7307;50.852;4.314;2022-08-01T03:30:57;11.30;;;5.13;;
14414;SDS011;7307;50.852;4.314;2022-08-01T03:33:24;7.88;;;4.25;;
14414;SDS011;7307;50.852;4.314;2022-08-01T03:35:52;8.55;;;4.38;;
14414;SDS011;7307;50.852;4.314;2022-08-01T03:38:20;7.10;;;4.28;;
14414;SDS011;7307;50.852;4.314;2022-08-01T03:40:59;6.47;;;4.32;;
14414;SDS011;7307;50.852;4.314;2022-08-01T03:43:34;7.97;;;4.80;;
14414;SDS011;7307;50.852;4.314;2022-08-01T03:46:04;5.93;;;4.75;;
14414;SDS011;7307;50.852;4.314;2022-08-01T03:48:33;8.35;;;4.60;;
14414;SDS011;7307;50.852;4.314;2022-08-01T03:51:04;8.35;;;5.00;;
14414;SDS011;7307;50.852;4.314;2022-08-01T03:53:32;10.88;;;5.30;;
14414;SDS011;7307;50.852;4.314;2022-08-01T03:56:00;10.43;;;4.97;;
14414;SDS011;7307;50.852;4.314;2022-08-01T03:58:27;8.45;;;5.20;;
14414;SDS011;7307;50.852;4.314;2022-08-01T04:00:54;12.13;;;6.03;;
14414;SDS011;7307;50.852;4.314;2022-08-01T04:03:20;9.02;;;5.63;;
14414;SDS011;7307;50.852;4.314;2022-08-01T04:05:46;9.82;;;5.32;;
14414;SDS011;7307;50.852;4.314;2022-08-01T04:08:11;8.38;;;5.60;;
14414;SDS011;7307;50.852;4.314;2022-08-01T04:10:37;7.88;;;5.70;;
14414;SDS011;7307;50.852;4.314;2022-08-01T04:13:03;8.55;;;5.35;;
14414;SDS011;7307;50.852;4.314;2022-08-01T04:15:28;8.38;;;5.40;;
14414;SDS011;7307;50.852;4.314;2022-08-01T04:17:54;8.07;;;5.10;;
14414;SDS011;7307;50.852;4.314;2022-08-01T04:20:20;8.15;;;5.40;;
14414;SDS011;7307;50.852;4.314;2022-08-01T04:22:46;9.30;;;5.68;;
14414;SDS011;7307;50.852;4.314;2022-08-01T04:25:13;8.23;;;5.05;;
14414;SDS011;7307;50.852;4.314;2022-08-01T04:27:49;8.68;;;5.40;;
14414;SDS011;7307;50.852;4.314;2022-08-01T04:30:19;7.30;;;5.15;;
14414;SDS011;7307;50.852;4.314;2022-08-01T04:32:49;6.00;;;4.60;;
14414;SDS011;7307;50.852;4.314;2022-08-01T04:35:17;7.30;;;4.82;;
14414;SDS011;7307;50.852;4.314;2022-08-01T04:37:45;8.20;;;5.07;;
14414;SDS011;7307;50.852;4.314;2022-08-01T04:40:13;6.78;;;5.05;;
14414;SDS011;7307;50.852;4.314;2022-08-01T04:42:39;8.85;;;5.07;;
14414;SDS011;7307;50.852;4.314;2022-08-01T04:45:05;9.07;;;5.60;;
14414;SDS011;7307;50.852;4.314;2022-08-01T04:47:33;9.07;;;6.20;;
14414;SDS011;7307;50.852;4.314;2022-08-01T04:50:00;8.95;;;5.95;;
14414;SDS011;7307;50.852;4.314;2022-08-01T04:52:32;9.07;;;5.63;;
14414;SDS011;7307;50.852;4.314;2022-08-01T04:54:59;11.25;;;6.43;;
14414;SDS011;7307;50.852;4.314;2022-08-01T04:57:25;8.57;;;6.05;;
14414;SDS011;7307;50.852;4.314;2022-08-01T04:59:50;8.70;;;5.93;;
14414;SDS011;7307;50.852;4.314;2022-08-01T05:02:21;7.57;;;5.47;;
14414;SDS011;7307;50.852;4.314;2022-08-01T05:04:48;7.47;;;5.55;;
14414;SDS011;7307;50.852;4.314;2022-08-01T05:07:14;6.85;;;5.25;;
14414;SDS011;7307;50.852;4.314;2022-08-01T05:09:40;6.72;;;5.32;;
14414;SDS011;7307;50.852;4.314;2022-08-01T05:12:08;6.97;;;5.28;;
14414;SDS011;7307;50.852;4.314;2022-08-01T05:14:34;6.63;;;5.25;;
14414;SDS011;7307;50.852;4.314;2022-08-01T05:17:00;8.95;;;5.50;;
14414;SDS011;7307;50.852;4.314;2022-08-01T05:19:32;6.35;;;5.13;;
14414;SDS011;7307;50.852;4.314;2022-08-01T05:21:58;7.20;;;4.53;;
14414;SDS011;7307;50.852;4.314;2022-08-01T05:24:26;5.63;;;4.85;;
14414;SDS011;7307;50.852;4.314;2022-08-01T05:26:53;7.85;;;5.28;;
14414;SDS011;7307;50.852;4.314;2022-08-01T05:29:19;7.80;;;5.07;;
14414;SDS011;7307;50.852;4.314;2022-08-01T05:31:45;8.52;;;5.00;;
14414;SDS011;7307;50.852;4.314;2022-08-01T05:34:10;6.18;;;4.38;;
14414;SDS011;7307;50.852;4.314;2022-08-01T05:36:36;5.95;;;4.10;;
14414;SDS011;7307;50.852;4.314;2022-08-01T05:39:02;5.90;;;4.00;;
14414;SDS011;7307;50.852;4.314;2022-08-01T05:41:29;8.13;;;4.47;;
14414;SDS011;7307;50.852;4.314;2022-08-01T05:43:55;6.38;;;3.65;;
14414;SDS011;7307;50.852;4.314;2022-08-01T05:46:20;4.28;;;3.70;;
14414;SDS011;7307;50.852;4.314;2022-08-01T05:48:46;8.15;;;4.55;;
14414;SDS011;7307;50.852;4.314;2022-08-01T05:51:11;10.70;;;4.25;;
14414;SDS011;7307;50.852;4.314;2022-08-01T05:53:37;8.65;;;4.53;;
14414;SDS011;7307;50.852;4.314;2022-08-01T05:56:03;6.10;;;4.28;;
14414;SDS011;7307;50.852;4.314;2022-08-01T05:58:29;9.75;;;4.47;;
14414;SDS011;7307;50.852;4.314;2022-08-01T06:00:55;6.00;;;4.00;;
14414;SDS011;7307;50.852;4.314;2022-08-01T06:03:21;5.63;;;3.80;;
14414;SDS011;7307;50.852;4.314;2022-08-01T06:05:46;6.68;;;4.03;;
14414;SDS011;7307;50.852;4.314;2022-08-01T06:08:12;6.38;;;4.22;;
14414;SDS011;7307;50.852;4.314;2022-08-01T06:10:38;4.22;;;3.38;;
14414;SDS011;7307;50.852;4.314;2022-08-01T06:13:04;5.68;;;3.88;;
14414;SDS011;7307;50.852;4.314;2022-08-01T06:15:30;6.38;;;3.88;;
14414;SDS011;7307;50.852;4.314;2022-08-01T06:17:56;9.57;;;4.55;;
14414;SDS011;7307;50.852;4.314;2022-08-01T06:20:22;4.80;;;3.50;;
14414;SDS011;7307;50.852;4.314;2022-08-01T06:22:47;4.68;;;3.67;;
14414;SDS011;7307;50.852;4.314;2022-08-01T06:25:13;4.55;;;3.70;;
14414;SDS011;7307;50.852;4.314;2022-08-01T06:27:39;4.80;;;3.85;;
14414;SDS011;7307;50.852;4.314;2022-08-01T06:30:05;5.47;;;3.20;;
14414;SDS011;7307;50.852;4.314;2022-08-01T06:32:32;6.63;;;3.75;;
14414;SDS011;7307;50.852;4.314;2022-08-01T06:34:59;6.75;;;2.72;;
14414;SDS011;7307;50.852;4.314;2022-08-01T06:37:30;6.15;;;2.92;;
14414;SDS011;7307;50.852;4.314;2022-08-01T06:40:01;4.30;;;2.72;;
14414;SDS011;7307;50.852;4.314;2022-08-01T06:42:27;5.40;;;2.63;;
14414;SDS011;7307;50.852;4.314;2022-08-01T06:44:53;4.55;;;2.30;;
14414;SDS011;7307;50.852;4.314;2022-08-01T06:47:19;5.13;;;2.72;;
14414;SDS011;7307;50.852;4.314;2022-08-01T06:49:48;2.50;;;1.90;;
14414;SDS011;7307;50.852;4.314;2022-08-01T06:52:33;4.15;;;2.30;;
14414;SDS011;7307;50.852;4.314;2022-08-01T06:54:59;3.20;;;2.15;;
14414;SDS011;7307;50.852;4.314;2022-08-01T06:57:25;3.90;;;2.20;;
14414;SDS011;7307;50.852;4.314;2022-08-01T06:59:51;4.50;;;2.38;;
14414;SDS011;7307;50.852;4.314;2022-08-01T07:02:17;3.40;;;1.95;;
14414;SDS011;7307;50.852;4.314;2022-08-01T07:04:42;3.55;;;1.90;;
14414;SDS011;7307;50.852;4.314;2022-08-01T07:07:08;4.70;;;2.47;;
14414;SDS011;7307;50.852;4.314;2022-08-01T07:09:33;3.53;;;1.80;;
14414;SDS011;7307;50.852;4.314;2022-08-01T07:11:59;2.95;;;1.80;;
14414;SDS011;7307;50.852;4.314;2022-08-01T07:14:25;3.03;;;1.70;;
14414;SDS011;7307;50.852;4.314;2022-08-01T07:16:51;3.17;;;1.85;;
14414;SDS011;7307;50.852;4.314;2022-08-01T07:19:16;3.25;;;1.52;;
14414;SDS011;7307;50.852;4.314;2022-08-01T07:21:42;2.75;;;1.70;;
14414;SDS011;7307;50.852;4.314;2022-08-01T07:24:09;3.63;;;1.60;;
14414;SDS011;7307;50.852;4.314;2022-08-01T07:26:36;1.77;;;1.65;;
14414;SDS011;7307;50.852;4.314;2022-08-01T07:29:02;3.47;;;1.70;;
14414;SDS011;7307;50.852;4.314;2022-08-01T07:31:28;2.55;;;1.77;;
14414;SDS011;7307;50.852;4.314;2022-08-01T07:33:53;3.10;;;1.75;;
14414;SDS011;7307;50.852;4.314;2022-08-01T07:36:22;1.73;;;1.50;;
14414;SDS011;7307;50.852;4.314;2022-08-01T07:38:48;2.70;;;1.35;;
14414;SDS011;7307;50.852;4.314;2022-08-01T07:41:14;2.20;;;1.35;;
14414;SDS011;7307;50.852;4.314;2022-08-01T07:43:39;1.77;;;1.50;;
14414;SDS011;7307;50.852;4.314;2022-08-01T07:46:05;2.65;;;1.50;;
14414;SDS011;7307;50.852;4.314;2022-08-01T07:48:31;2.17;;;1.10;;
14414;SDS011;7307;50.852;4.314;2022-08-01T07:50:57;1.55;;;1.30;;
14414;SDS011;7307;50.852;4.314;2022-08-01T07:53:23;1.52;;;1.38;;
14414;SDS011;7307;50.852;4.314;2022-08-01T07:55:48;1.40;;;1.30;;
14414;SDS011;7307;50.852;4.314;2022-08-01T07:58:14;3.00;;;1.83;;
14414;SDS011;7307;50.852;4.314;2022-08-01T08:00:40;2.15;;;1.67;;
14414;SDS011;7307;50.852;4.314;2022-08-01T08:03:09;1.30;;;1.20;;
14414;SDS011;7307;50.852;4.314;2022-08-01T08:05:35;1.98;;;1.05;;
14414;SDS011;7307;50.852;4.314;2022-08-01T08:08:02;1.60;;;1.50;;
14414;SDS011;7307;50.852;4.314;2022-08-01T08:10:29;2.03;;;1.30;;
14414;SDS011;7307;50.852;4.314;2022-08-01T08:12:55;2.42;;;1.30;;
14414;SDS011;7307;50.852;4.314;2022-08-01T08:15:21;1.75;;;1.15;;
14414;SDS011;7307;50.852;4.314;2022-08-01T08:17:46;2.13;;;1.40;;
14414;SDS011;7307;50.852;4.314;2022-08-01T08:20:12;2.38;;;1.58;;
14414;SDS011;7307;50.852;4.314;2022-08-01T08:22:38;2.65;;;1.40;;
14414;SDS011;7307;50.852;4.314;2022-08-01T08:25:04;1.65;;;1.42;;
14414;SDS011;7307;50.852;4.314;2022-08-01T08:27:30;1.70;;;1.10;;
14414;SDS011;7307;50.852;4.314;2022-08-01T08:29:56;1.40;;;1.30;;
14414;SDS011;7307;50.852;4.314;2022-08-01T08:32:22;1.60;;;1.50;;
14414;SDS011;7307;50.852;4.314;2022-08-01T08:34:47;1.80;;;1.27;;
14414;SDS011;7307;50.852;4.314;2022-08-01T08:37:13;1.95;;;1.40;;
14414;SDS011;7307;50.852;4.314;2022-08-01T08:39:38;1.55;;;1.45;;
14414;SDS011;7307;50.852;4.314;2022-08-01T08:42:07;2.25;;;1.60;;
14414;SDS011;7307;50.852;4.314;2022-08-01T08:44:34;1.45;;;1.35;;
14414;SDS011;7307;50.852;4.314;2022-08-01T08:47:00;2.15;;;1.80;;
14414;SDS011;7307;50.852;4.314;2022-08-01T08:49:30;2.00;;;1.80;;
14414;SDS011;7307;50.852;4.314;2022-08-01T08:52:00;2.22;;;1.70;;
14414;SDS011;7307;50.852;4.314;2022-08-01T08:54:27;1.90;;;1.70;;
14414;SDS011;7307;50.852;4.314;2022-08-01T08:56:54;1.75;;;1.60;;
14414;SDS011;7307;50.852;4.314;2022-08-01T08:59:21;2.22;;;2.00;;
14414;SDS011;7307;50.852;4.314;2022-08-01T09:01:49;1.90;;;1.80;;
14414;SDS011;7307;50.852;4.314;2022-08-01T09:04:15;1.80;;;1.70;;
14414;SDS011;7307;50.852;4.314;2022-08-01T09:06:41;3.60;;;1.80;;
14414;SDS011;7307;50.852;4.314;2022-08-01T09:09:07;2.05;;;1.67;;
14414;SDS011;7307;50.852;4.314;2022-08-01T09:11:34;1.90;;;1.80;;
14414;SDS011;7307;50.852;4.314;2022-08-01T09:14:02;4.30;;;2.10;;
14414;SDS011;7307;50.852;4.314;2022-08-01T09:16:31;1.60;;;1.50;;
14414;SDS011;7307;50.852;4.314;2022-08-01T09:19:06;2.10;;;1.80;;
14414;SDS011;7307;50.852;4.314;2022-08-01T09:21:35;2.03;;;1.58;;
14414;SDS011;7307;50.852;4.314;2022-08-01T09:24:01;2.65;;;1.60;;
14414;SDS011;7307;50.852;4.314;2022-08-01T09:28:58;1.58;;;1.48;;
14414;SDS011;7307;50.852;4.314;2022-08-01T09:31:25;1.67;;;1.55;;
14414;SDS011;7307;50.852;4.314;2022-08-01T09:33:56;1.60;;;1.50;;
14414;SDS011;7307;50.852;4.314;2022-08-01T09:36:26;1.90;;;1.40;;
14414;SDS011;7307;50.852;4.314;2022-08-01T09:39:11;1.60;;;1.50;;
14414;SDS011;7307;50.852;4.314;2022-08-01T09:41:38;1.63;;;1.40;;
14414;SDS011;7307;50.852;4.314;2022-08-01T09:44:05;3.38;;;1.60;;
14414;SDS011;7307;50.852;4.314;2022-08-01T09:46:30;1.55;;;1.45;;
14414;SDS011;7307;50.852;4.314;2022-08-01T09:49:00;2.00;;;1.23;;
14414;SDS011;7307;50.852;4.314;2022-08-01T09:51:35;1.70;;;1.08;;
14414;SDS011;7307;50.852;4.314;2022-08-01T09:54:03;1.77;;;1.10;;
14414;SDS011;7307;50.852;4.314;2022-08-01T09:56:40;1.50;;;1.05;;
14414;SDS011;7307;50.852;4.314;2022-08-01T09:59:07;3.80;;;1.10;;
14414;SDS011;7307;50.852;4.314;2022-08-01T10:06:38;1.13;;;1.00;;
14414;SDS011;7307;50.852;4.314;2022-08-01T10:09:07;3.35;;;1.02;;
14414;SDS011;7307;50.852;4.314;2022-08-01T10:11:37;1.88;;;1.23;;
14414;SDS011;7307;50.852;4.314;2022-08-01T10:14:11;1.50;;;1.17;;
14414;SDS011;7307;50.852;4.314;2022-08-01T10:16:39;0.90;;;0.75;;
14414;SDS011;7307;50.852;4.314;2022-08-01T10:19:06;1.20;;;0.90;;
14414;SDS011;7307;50.852;4.314;2022-08-01T10:21:32;1.30;;;0.82;;
14414;SDS011;7307;50.852;4.314;2022-08-01T10:24:02;0.82;;;0.82;;
14414;SDS011;7307;50.852;4.314;2022-08-01T10:26:29;1.30;;;0.93;;
14414;SDS011;7307;50.852;4.314;2022-08-01T10:28:58;1.95;;;1.17;;
14414;SDS011;7307;50.852;4.314;2022-08-01T10:31:25;0.70;;;0.70;;
14414;SDS011;7307;50.852;4.314;2022-08-01T10:33:52;1.67;;;1.02;;
14414;SDS011;7307;50.852;4.314;2022-08-01T10:36:19;0.70;;;0.70;;
14414;SDS011;7307;50.852;4.314;2022-08-01T10:38:46;2.05;;;0.90;;
14414;SDS011;7307;50.852;4.314;2022-08-01T10:41:12;1.00;;;0.70;;
14414;SDS011;7307;50.852;4.314;2022-08-01T10:43:42;0.82;;;0.70;;
14414;SDS011;7307;50.852;4.314;2022-08-01T10:46:07;0.98;;;0.88;;
14414;SDS011;7307;50.852;4.314;2022-08-01T10:51:20;2.67;;;0.77;;
14414;SDS011;7307;50.852;4.314;2022-08-01T10:53:47;0.90;;;0.90;;
14414;SDS011;7307;50.852;4.314;2022-08-01T10:56:15;0.82;;;0.70;;
14414;SDS011;7307;50.852;4.314;2022-08-01T10:58:42;0.85;;;0.85;;
14414;SDS011;7307;50.852;4.314;2022-08-01T11:01:22;0.80;;;0.80;;
14414;SDS011;7307;50.852;4.314;2022-08-01T11:06:22;1.17;;;0.80;;
14414;SDS011;7307;50.852;4.314;2022-08-01T11:08:52;1.27;;;0.77;;
14414;SDS011;7307;50.852;4.314;2022-08-01T11:11:19;0.80;;;0.80;;
14414;SDS011;7307;50.852;4.314;2022-08-01T11:16:27;0.75;;;0.75;;
14414;SDS011;7307;50.852;4.314;2022-08-01T11:18:54;1.50;;;1.00;;
14414;SDS011;7307;50.852;4.314;2022-08-01T11:21:20;0.65;;;0.65;;
14414;SDS011;7307;50.852;4.314;2022-08-01T11:23:49;0.70;;;0.70;;
14414;SDS011;7307;50.852;4.314;2022-08-01T11:26:19;0.65;;;0.65;;
14414;SDS011;7307;50.852;4.314;2022-08-01T11:28:46;0.65;;;0.63;;
14414;SDS011;7307;50.852;4.314;2022-08-01T11:31:32;0.98;;;0.60;;
14414;SDS011;7307;50.852;4.314;2022-08-01T11:33:59;1.25;;;0.70;;
14414;SDS011;7307;50.852;4.314;2022-08-01T11:36:25;1.13;;;0.73;;
14414;SDS011;7307;50.852;4.314;2022-08-01T11:39:13;1.48;;;1.00;;
14414;SDS011;7307;50.852;4.314;2022-08-01T11:41:38;0.77;;;0.77;;
14414;SDS011;7307;50.852;4.314;2022-08-01T11:44:05;1.05;;;0.90;;
14414;SDS011;7307;50.852;4.314;2022-08-01T11:52:00;1.38;;;0.88;;
14414;SDS011;7307;50.852;4.314;2022-08-01T11:54:33;0.60;;;0.60;;
14414;SDS011;7307;50.852;4.314;2022-08-01T11:57:02;1.55;;;0.90;;
14414;SDS011;7307;50.852;4.314;2022-08-01T11:59:31;1.20;;;0.75;;
14414;SDS011;7307;50.852;4.314;2022-08-01T12:02:16;1.17;;;0.90;;
14414;SDS011;7307;50.852;4.314;2022-08-01T12:07:12;0.70;;;0.70;;
14414;SDS011;7307;50.852;4.314;2022-08-01T12:09:41;1.08;;;0.63;;
14414;SDS011;7307;50.852;4.314;2022-08-01T12:12:07;1.17;;;0.82;;
14414;SDS011;7307;50.852;4.314;2022-08-01T12:14:34;0.77;;;0.70;;
14414;SDS011;7307;50.852;4.314;2022-08-01T12:17:00;0.95;;;0.80;;
14414;SDS011;7307;50.852;4.314;2022-08-01T12:19:25;1.10;;;0.63;;
14414;SDS011;7307;50.852;4.314;2022-08-01T12:24:39;0.93;;;0.73;;
14414;SDS011;7307;50.852;4.314;2022-08-01T12:27:07;0.70;;;0.60;;
14414;SDS011;7307;50.852;4.314;2022-08-01T12:29:35;1.40;;;0.88;;
14414;SDS011;7307;50.852;4.314;2022-08-01T12:32:02;1.85;;;0.70;;
14414;SDS011;7307;50.852;4.314;2022-08-01T12:34:29;1.70;;;1.30;;
14414;SDS011;7307;50.852;4.314;2022-08-01T12:36:58;2.00;;;1.00;;
14414;SDS011;7307;50.852;4.314;2022-08-01T12:39:29;1.60;;;1.05;;
14414;SDS011;7307;50.852;4.314;2022-08-01T12:42:01;2.63;;;0.90;;
14414;SDS011;7307;50.852;4.314;2022-08-01T12:44:30;1.48;;;0.90;;
14414;SDS011;7307;50.852;4.314;2022-08-01T12:46:56;1.10;;;1.00;;
14414;SDS011;7307;50.852;4.314;2022-08-01T12:49:22;1.30;;;0.90;;
14414;SDS011;7307;50.852;4.314;2022-08-01T12:51:49;1.38;;;1.00;;
14414;SDS011;7307;50.852;4.314;2022-08-01T12:54:16;2.42;;;1.20;;
14414;SDS011;7307;50.852;4.314;2022-08-01T12:56:42;1.30;;;1.15;;
14414;SDS011;7307;50.852;4.314;2022-08-01T12:59:21;1.63;;;1.00;;
14414;SDS011;7307;50.852;4.314;2022-08-01T13:01:49;1.20;;;0.90;;
14414;SDS011;7307;50.852;4.314;2022-08-01T13:04:19;0.90;;;0.90;;
14414;SDS011;7307;50.852;4.314;2022-08-01T13:06:46;1.70;;;0.93;;
14414;SDS011;7307;50.852;4.314;2022-08-01T13:09:12;1.55;;;1.15;;
14414;SDS011;7307;50.852;4.314;2022-08-01T13:11:39;2.05;;;1.00;;
14414;SDS011;7307;50.852;4.314;2022-08-01T13:14:06;1.35;;;1.10;;
14414;SDS011;7307;50.852;4.314;2022-08-01T13:16:32;1.98;;;0.90;;
14414;SDS011;7307;50.852;4.314;2022-08-01T13:18:57;1.73;;;0.98;;
14414;SDS011;7307;50.852;4.314;2022-08-01T13:21:30;2.33;;;1.33;;
14414;SDS011;7307;50.852;4.314;2022-08-01T13:24:00;1.65;;;1.13;;
14414;SDS011;7307;50.852;4.314;2022-08-01T13:29:19;1.95;;;0.90;;
14414;SDS011;7307;50.852;4.314;2022-08-01T13:32:19;1.38;;;1.00;;
14414;SDS011;7307;50.852;4.314;2022-08-01T13:34:46;1.38;;;1.00;;
14414;SDS011;7307;50.852;4.314;2022-08-01T13:37:21;1.75;;;1.02;;
14414;SDS011;7307;50.852;4.314;2022-08-01T13:39:46;1.20;;;1.10;;
14414;SDS011;7307;50.852;4.314;2022-08-01T13:42:14;1.35;;;1.10;;
14414;SDS011;7307;50.852;4.314;2022-08-01T13:44:41;1.50;;;1.40;;
14414;SDS011;7307;50.852;4.314;2022-08-01T13:47:07;1.30;;;1.20;;
14414;SDS011;7307;50.852;4.314;2022-08-01T13:49:34;1.10;;;1.00;;
14414;SDS011;7307;50.852;4.314;2022-08-01T13:52:00;1.20;;;1.10;;
14414;SDS011;7307;50.852;4.314;2022-08-01T13:54:26;2.08;;;1.20;;
14414;SDS011;7307;50.852;4.314;2022-08-01T13:56:53;1.77;;;1.20;;
14414;SDS011;7307;50.852;4.314;2022-08-01T13:59:19;2.17;;;1.00;;
14414;SDS011;7307;50.852;4.314;2022-08-01T14:01:45;1.00;;;0.90;;
14414;SDS011;7307;50.852;4.314;2022-08-01T14:04:11;1.23;;;1.10;;
14414;SDS011;7307;50.852;4.314;2022-08-01T14:06:37;1.98;;;1.00;;
14414;SDS011;7307;50.852;4.314;2022-08-01T14:09:03;1.15;;;0.98;;
14414;SDS011;7307;50.852;4.314;2022-08-01T14:11:29;1.17;;;0.98;;
14414;SDS011;7307;50.852;4.314;2022-08-01T14:13:55;1.20;;;1.02;;
14414;SDS011;7307;50.852;4.314;2022-08-01T14:16:20;0.85;;;0.80;;
14414;SDS011;7307;50.852;4.314;2022-08-01T14:18:46;1.30;;;1.20;;
14414;SDS011;7307;50.852;4.314;2022-08-01T14:21:12;1.75;;;1.10;;
14414;SDS011;7307;50.852;4.314;2022-08-01T14:23:37;1.10;;;1.00;;
14414;SDS011;7307;50.852;4.314;2022-08-01T14:26:03;1.40;;;1.00;;
14414;SDS011;7307;50.852;4.314;2022-08-01T14:28:29;2.20;;;1.20;;
14414;SDS011;7307;50.852;4.314;2022-08-01T14:30:56;1.75;;;1.10;;
14414;SDS011;7307;50.852;4.314;2022-08-01T14:33:22;2.78;;;1.10;;
14414;SDS011;7307;50.852;4.314;2022-08-01T14:35:48;1.73;;;1.27;;
14414;SDS011;7307;50.852;4.314;2022-08-01T14:38:14;1.52;;;1.20;;
14414;SDS011;7307;50.852;4.314;2022-08-01T14:40:39;2.83;;;1.10;;
14414;SDS011;7307;50.852;4.314;2022-08-01T14:43:08;1.75;;;1.00;;
14414;SDS011;7307;50.852;4.314;2022-08-01T14:45:34;2.53;;;1.00;;
14414;SDS011;7307;50.852;4.314;2022-08-01T14:48:00;2.45;;;1.00;;
14414;SDS011;7307;50.852;4.314;2022-08-01T14:50:26;1.48;;;1.08;;
14414;SDS011;7307;50.852;4.314;2022-08-01T14:52:53;1.10;;;1.00;;
14414;SDS011;7307;50.852;4.314;2022-08-01T14:55:18;1.35;;;1.00;;
14414;SDS011;7307;50.852;4.314;2022-08-01T14:57:48;0.70;;;0.70;;
14414;SDS011;7307;50.852;4.314;2022-08-01T15:00:14;1.58;;;1.05;;
14414;SDS011;7307;50.852;4.314;2022-08-01T15:02:40;1.20;;;1.10;;
14414;SDS011;7307;50.852;4.314;2022-08-01T15:05:06;1.63;;;1.08;;
14414;SDS011;7307;50.852;4.314;2022-08-01T15:07:32;2.58;;;1.23;;
14414;SDS011;7307;50.852;4.314;2022-08-01T15:09:58;1.58;;;1.02;;
14414;SDS011;7307;50.852;4.314;2022-08-01T15:12:27;1.45;;;1.05;;
14414;SDS011;7307;50.852;4.314;2022-08-01T15:14:52;1.65;;;1.20;;
14414;SDS011;7307;50.852;4.314;2022-08-01T15:19:50;1.08;;;1.00;;
14414;SDS011;7307;50.852;4.314;2022-08-01T15:22:17;1.75;;;0.90;;
14414;SDS011;7307;50.852;4.314;2022-08-01T15:24:43;1.80;;;0.90;;
14414;SDS011;7307;50.852;4.314;2022-08-01T15:27:09;2.88;;;1.27;;
14414;SDS011;7307;50.852;4.314;2022-08-01T15:29:36;1.63;;;1.20;;
14414;SDS011;7307;50.852;4.314;2022-08-01T15:32:02;1.30;;;0.88;;
14414;SDS011;7307;50.852;4.314;2022-08-01T15:34:29;2.33;;;0.90;;
14414;SDS011;7307;50.852;4.314;2022-08-01T15:36:56;1.80;;;1.20;;
14414;SDS011;7307;50.852;4.314;2022-08-01T15:39:22;1.60;;;1.10;;
14414;SDS011;7307;50.852;4.314;2022-08-01T15:41:48;0.90;;;0.90;;
14414;SDS011;7307;50.852;4.314;2022-08-01T15:44:14;1.00;;;1.00;;
14414;SDS011;7307;50.852;4.314;2022-08-01T15:46:40;2.65;;;1.23;;
14414;SDS011;7307;50.852;4.314;2022-08-01T15:49:05;1.98;;;1.00;;